Time;durP1;ratioP1;P1;durP2;ratioP2;P2;SDS_P1;SDS_P2;PMS_P1;PMS_P2;Temp;Humidity;BMP_temperature;BMP_pressure;BME280_temperature;BME280_humidity;BME280_pressure;Samples;Min_cycle;Max_cycle;Signal;HPM_P1;HPM_P2
2022/01/19 00:01:56;;;;;;;116.00;40.87;;;5.20;99.90;;;;;;4973608;28;20500;-76
2022/01/19 00:04:23;;;;;;;118.80;41.23;;;5.20;99.90;;;;;;4985657;28;20042;-77
2022/01/19 00:06:49;;;;;;;128.00;43.00;;;5.20;99.90;;;;;;4973639;28;20042;-76
2022/01/19 00:09:15;;;;;;;143.93;43.30;;;5.20;99.90;;;;;;4985245;28;20101;-76
2022/01/19 00:11:40;;;;;;;127.33;43.20;;;5.20;99.90;;;;;;4988092;28;20141;-76
2022/01/19 00:14:06;;;;;;;129.43;43.00;;;5.20;99.90;;;;;;4981587;28;20423;-76
2022/01/19 00:16:32;;;;;;;123.67;43.13;;;5.20;99.90;;;;;;4968809;28;20046;-77
2022/01/19 00:18:57;;;;;;;117.30;41.70;;;5.20;99.90;;;;;;4972817;28;20125;-76
2022/01/19 00:21:24;;;;;;;121.53;39.80;;;5.20;99.90;;;;;;4970041;28;20042;-75
2022/01/19 00:23:50;;;;;;;106.60;39.13;;;5.20;99.90;;;;;;4978107;28;20064;-76
2022/01/19 00:26:16;;;;;;;113.77;38.30;;;5.20;99.90;;;;;;5004456;28;20133;-76
2022/01/19 00:28:42;;;;;;;105.47;36.90;;;5.20;99.90;;;;;;4981983;28;20527;-75
2022/01/19 00:31:07;;;;;;;92.20;35.80;;;5.20;99.90;;;;;;4987010;28;20046;-76
2022/01/19 00:33:34;;;;;;;89.97;33.33;;;5.20;99.90;;;;;;4985854;28;20042;-76
2022/01/19 00:35:59;;;;;;;86.87;32.70;;;5.30;99.90;;;;;;4990352;28;20077;-76
2022/01/19 00:38:26;;;;;;;82.97;33.00;;;5.30;99.90;;;;;;4973546;28;20138;-76
2022/01/19 00:40:55;;;;;;;85.23;32.27;;;5.30;99.90;;;;;;5000102;28;20091;-76
2022/01/19 00:43:22;;;;;;;75.93;30.77;;;5.30;99.90;;;;;;4973237;28;20496;-76
2022/01/19 00:45:50;;;;;;;92.50;31.73;;;5.30;99.90;;;;;;4983921;28;20038;-76
2022/01/19 00:48:16;;;;;;;83.37;31.77;;;5.30;99.90;;;;;;4973589;28;20455;-77
2022/01/19 00:50:41;;;;;;;81.27;32.07;;;5.30;99.90;;;;;;5002456;28;20415;-78
2022/01/19 00:53:07;;;;;;;81.17;28.77;;;5.30;99.90;;;;;;4973362;28;20129;-76
2022/01/19 00:55:34;;;;;;;74.93;29.27;;;5.30;99.90;;;;;;4974680;28;20055;-76
2022/01/19 00:58:00;;;;;;;78.70;29.57;;;5.30;99.90;;;;;;4967992;28;20133;-76
2022/01/19 01:00:28;;;;;;;73.93;30.97;;;5.30;99.90;;;;;;4989239;28;20196;-76
2022/01/19 01:02:54;;;;;;;81.33;31.33;;;5.30;99.90;;;;;;4983876;28;20069;-76
2022/01/19 01:05:21;;;;;;;78.97;29.37;;;5.20;99.90;;;;;;4985524;28;20039;-76
2022/01/19 01:07:47;;;;;;;75.27;28.40;;;5.10;99.90;;;;;;4965449;28;20066;-76
2022/01/19 01:10:16;;;;;;;79.63;28.10;;;5.00;99.90;;;;;;4987266;28;20053;-76
2022/01/19 01:12:46;;;;;;;86.80;32.10;;;5.00;99.90;;;;;;4973956;28;20160;-76
2022/01/19 01:18:21;;;;;;;82.47;30.00;;;5.00;99.90;;;;;;4936624;28;20106;-76
2022/01/19 01:20:58;;;;;;;88.13;30.77;;;5.00;99.90;;;;;;4965698;28;20055;-77
2022/01/19 01:23:27;;;;;;;85.90;32.07;;;5.00;99.90;;;;;;4974590;28;20465;-77
2022/01/19 01:25:53;;;;;;;87.93;32.03;;;5.00;99.90;;;;;;4980196;28;20038;-77
2022/01/19 01:28:21;;;;;;;100.03;33.33;;;5.00;99.90;;;;;;4989176;28;20049;-76
2022/01/19 01:30:47;;;;;;;102.30;33.57;;;5.10;99.90;;;;;;4969953;28;20053;-76
2022/01/19 01:33:13;;;;;;;84.93;33.60;;;5.10;99.90;;;;;;4975839;28;20038;-75
2022/01/19 01:35:40;;;;;;;98.17;33.27;;;5.10;99.90;;;;;;4976645;28;20407;-75
2022/01/19 01:38:06;;;;;;;107.37;34.93;;;5.10;99.90;;;;;;4970675;28;20049;-76
2022/01/19 01:40:34;;;;;;;101.70;37.37;;;5.10;99.90;;;;;;4975991;28;20132;-76
2022/01/19 01:43:01;;;;;;;106.70;35.80;;;5.10;99.90;;;;;;5003814;28;20038;-76
2022/01/19 01:45:32;;;;;;;105.20;34.80;;;5.10;99.90;;;;;;4992479;28;20046;-76
2022/01/19 01:48:19;;;;;;;105.30;35.17;;;5.00;99.90;;;;;;4977205;28;20536;-77
2022/01/19 01:53:45;;;;;;;90.17;33.77;;;5.00;99.90;;;;;;4992895;28;20472;-76
2022/01/19 01:56:16;;;;;;;102.87;35.30;;;4.90;99.90;;;;;;4967070;28;20137;-76
2022/01/19 01:58:44;;;;;;;106.27;35.40;;;4.90;99.90;;;;;;4977379;28;20081;-76
2022/01/19 02:01:41;;;;;;;101.17;33.63;;;4.90;99.90;;;;;;4978090;28;20116;-76
2022/01/19 02:04:16;;;;;;;109.43;36.27;;;4.90;99.90;;;;;;4977030;28;20511;-76
2022/01/19 02:07:03;;;;;;;112.27;37.97;;;4.80;99.90;;;;;;4953695;28;20057;-76
2022/01/19 02:09:35;;;;;;;119.70;36.73;;;4.80;99.90;;;;;;4976295;28;20068;-76
2022/01/19 02:25:49;;;;;;;108.23;34.47;;;4.70;99.90;;;;;;4986758;28;20049;-76
2022/01/19 02:41:42;;;;;;;133.83;38.93;;;4.60;99.90;;;;;;4989407;28;20042;-75
2022/01/19 02:44:10;;;;;;;118.53;38.53;;;4.60;99.90;;;;;;4974258;28;20065;-76
2022/01/19 02:46:54;;;;;;;123.63;37.77;;;4.50;99.90;;;;;;4974545;28;20448;-76
2022/01/19 02:49:21;;;;;;;136.20;41.97;;;4.50;99.90;;;;;;4967610;28;20188;-76
2022/01/19 02:51:50;;;;;;;143.17;40.80;;;4.50;99.90;;;;;;4990399;28;20129;-76
2022/01/19 02:54:19;;;;;;;152.00;41.23;;;4.50;99.90;;;;;;4986353;28;20070;-76
2022/01/19 02:56:50;;;;;;;146.23;39.93;;;4.50;99.90;;;;;;4974952;28;20038;-76
2022/01/19 02:59:26;;;;;;;142.83;40.27;;;4.50;99.90;;;;;;4988994;28;20045;-76
2022/01/19 03:10:08;;;;;;;119.77;36.87;;;4.50;99.90;;;;;;4965024;28;20145;-76
2022/01/19 03:12:34;;;;;;;137.73;41.47;;;4.50;99.90;;;;;;4973315;28;20447;-76
2022/01/19 03:14:59;;;;;;;150.90;41.17;;;4.40;99.90;;;;;;4991993;28;20042;-73
2022/01/19 03:17:26;;;;;;;147.97;41.00;;;4.40;99.90;;;;;;4969505;28;20069;-76
2022/01/19 03:19:51;;;;;;;151.47;42.23;;;4.40;99.90;;;;;;4990857;28;20108;-75
2022/01/19 03:22:21;;;;;;;151.93;43.83;;;4.50;99.90;;;;;;4971556;28;20495;-76
2022/01/19 03:24:51;;;;;;;153.73;43.20;;;4.50;99.90;;;;;;4974366;28;20138;-76
2022/01/19 03:27:17;;;;;;;178.87;44.90;;;4.50;99.90;;;;;;4990457;28;20050;-75
2022/01/19 03:29:45;;;;;;;147.53;43.93;;;4.50;99.90;;;;;;4970096;28;20042;-76
2022/01/19 03:32:12;;;;;;;144.47;43.63;;;4.50;99.90;;;;;;4969030;28;20144;-76
2022/01/19 03:34:39;;;;;;;130.53;40.60;;;4.50;99.90;;;;;;4967908;28;20046;-75
2022/01/19 03:37:07;;;;;;;136.33;41.53;;;4.50;99.90;;;;;;4990464;28;20141;-76
2022/01/19 03:39:32;;;;;;;132.13;42.03;;;4.40;99.90;;;;;;4991057;28;20049;-77
2022/01/19 03:42:00;;;;;;;159.00;42.27;;;4.40;99.90;;;;;;4970397;28;20046;-76
2022/01/19 03:44:26;;;;;;;153.80;42.93;;;4.40;99.90;;;;;;4974460;28;20038;-76
2022/01/19 03:46:56;;;;;;;170.03;43.40;;;4.40;99.90;;;;;;5000417;28;20049;-76
2022/01/19 03:49:26;;;;;;;156.77;42.03;;;4.40;99.90;;;;;;4982241;28;20399;-75
2022/01/19 03:51:58;;;;;;;172.40;45.53;;;4.40;99.90;;;;;;4985829;28;20046;-77
2022/01/19 03:54:24;;;;;;;173.97;45.90;;;4.40;99.90;;;;;;4989872;28;20508;-76
2022/01/19 03:56:50;;;;;;;186.83;47.23;;;4.40;99.90;;;;;;4989961;28;20509;-76
2022/01/19 03:59:17;;;;;;;143.53;43.50;;;4.40;99.90;;;;;;4987644;28;20050;-75
2022/01/19 04:01:43;;;;;;;152.13;44.77;;;4.40;99.90;;;;;;4990310;28;20627;-77
2022/01/19 04:07:07;;;;;;;135.60;40.25;;;4.40;99.90;;;;;;4990763;28;20059;-77
2022/01/19 04:09:35;;;;;;;139.33;41.40;;;4.30;99.90;;;;;;4981454;28;20405;-76
2022/01/19 04:12:01;;;;;;;125.13;39.77;;;4.30;99.90;;;;;;4974183;28;20054;-76
2022/01/19 04:14:28;;;;;;;136.80;40.90;;;4.30;99.90;;;;;;4987443;28;20061;-76
2022/01/19 04:16:58;;;;;;;142.73;41.37;;;4.30;99.90;;;;;;4988098;28;20058;-76
2022/01/19 04:19:33;;;;;;;132.83;38.33;;;4.30;99.90;;;;;;4973391;28;20046;-76
2022/01/19 04:22:04;;;;;;;122.53;39.00;;;4.20;99.90;;;;;;4968601;28;20101;-76
2022/01/19 04:24:33;;;;;;;121.40;38.27;;;4.20;99.90;;;;;;4986903;28;20050;-76
2022/01/19 04:29:48;;;;;;;125.33;39.00;;;4.10;99.90;;;;;;4989324;28;20129;-75
2022/01/19 04:32:27;;;;;;;127.47;40.13;;;4.10;99.90;;;;;;4968883;28;20050;-76
2022/01/19 04:34:53;;;;;;;132.43;39.13;;;4.00;99.90;;;;;;4999268;28;20129;-76
2022/01/19 05:01:49;;;;;;;169.73;42.07;;;3.90;99.90;;;;;;4970091;28;20092;-75
2022/01/19 05:04:49;;;;;;;200.30;46.23;;;3.90;99.90;;;;;;4976825;28;20050;-75
2022/01/19 05:07:38;;;;;;;187.63;45.57;;;3.90;99.90;;;;;;4973773;28;20041;-76
2022/01/19 05:13:25;;;;;;;150.95;43.13;;;3.90;99.90;;;;;;4975455;28;20514;-76
2022/01/19 05:15:39;;;;;;;138.97;42.13;;;4.00;99.90;;;;;;4989763;28;20101;-76
2022/01/19 05:18:11;;;;;;;139.23;44.63;;;4.00;99.90;;;;;;5010195;28;20039;-77
2022/01/19 05:20:38;;;;;;;120.53;38.87;;;4.00;99.90;;;;;;4985613;28;20070;-76
2022/01/19 05:23:04;;;;;;;133.00;40.63;;;4.00;99.90;;;;;;4977903;28;20047;-77
2022/01/19 05:25:30;;;;;;;122.60;39.00;;;4.00;99.90;;;;;;4971105;28;20109;-77
2022/01/19 05:28:18;;;;;;;118.60;39.93;;;3.90;99.90;;;;;;4977576;28;20100;-77
2022/01/19 05:30:44;;;;;;;116.17;38.97;;;3.90;99.90;;;;;;4969378;28;20046;-76
2022/01/19 05:33:11;;;;;;;108.70;38.87;;;3.90;99.90;;;;;;4991733;28;20664;-77
2022/01/19 05:35:37;;;;;;;121.10;39.93;;;3.90;99.90;;;;;;5003719;28;20073;-76
2022/01/19 05:38:23;;;;;;;110.53;39.80;;;3.90;99.90;;;;;;4967452;28;20066;-76
2022/01/19 05:40:57;;;;;;;108.05;40.53;;;3.90;99.90;;;;;;5008975;28;20455;-76
2022/01/19 05:43:22;;;;;;;111.90;40.37;;;3.90;99.90;;;;;;4968481;28;20039;-76
2022/01/19 05:45:49;;;;;;;99.70;38.50;;;3.90;99.90;;;;;;5010073;28;20089;-76
2022/01/19 05:48:19;;;;;;;103.70;39.73;;;3.90;99.90;;;;;;4988126;28;20062;-76
2022/01/19 05:50:49;;;;;;;104.60;39.47;;;4.00;99.90;;;;;;4975207;28;20038;-77
2022/01/19 05:53:19;;;;;;;116.07;43.23;;;4.00;99.90;;;;;;4991717;28;20089;-76
2022/01/19 05:55:45;;;;;;;114.27;41.97;;;4.00;99.90;;;;;;4971714;28;20566;-77
2022/01/19 05:58:11;;;;;;;99.17;39.67;;;4.00;99.90;;;;;;4976358;28;20042;-76
2022/01/19 06:00:37;;;;;;;104.93;41.63;;;4.00;99.90;;;;;;4988404;28;20038;-76
2022/01/19 06:03:04;;;;;;;111.40;40.57;;;4.00;99.90;;;;;;4992544;28;20423;-76
2022/01/19 06:05:51;;;;;;;101.03;39.57;;;4.00;99.90;;;;;;4987861;28;20396;-75
2022/01/19 06:08:41;;;;;;;109.47;40.40;;;4.00;99.90;;;;;;4971335;28;20050;-76
2022/01/19 06:11:06;;;;;;;108.67;42.33;;;4.00;99.90;;;;;;4992238;28;20050;-75
2022/01/19 06:13:33;;;;;;;94.37;40.30;;;4.00;99.90;;;;;;4986980;28;20053;-76
2022/01/19 06:15:59;;;;;;;103.97;40.63;;;4.00;99.90;;;;;;4972190;28;20050;-76
2022/01/19 06:18:24;;;;;;;105.13;42.47;;;4.00;99.90;;;;;;4952983;28;20416;-76
2022/01/19 06:20:52;;;;;;;110.47;42.47;;;4.00;99.90;;;;;;4973562;28;20519;-77
2022/01/19 06:23:24;;;;;;;100.23;39.87;;;4.00;99.90;;;;;;4973272;28;20512;-76
2022/01/19 06:25:59;;;;;;;99.57;41.57;;;4.00;99.90;;;;;;4975621;28;20705;-76
2022/01/19 06:28:25;;;;;;;94.87;39.43;;;4.00;99.90;;;;;;4975380;28;20038;-77
2022/01/19 06:30:50;;;;;;;98.10;40.83;;;4.00;99.90;;;;;;4968309;28;20046;-76
2022/01/19 06:33:16;;;;;;;94.17;40.23;;;4.00;99.90;;;;;;4976379;28;20046;-75
2022/01/19 06:35:42;;;;;;;99.47;40.77;;;4.00;99.90;;;;;;4965905;28;20077;-75
2022/01/19 06:38:15;;;;;;;99.33;39.70;;;4.00;99.90;;;;;;4975218;28;20049;-76
2022/01/19 06:40:54;;;;;;;90.60;38.70;;;4.00;99.90;;;;;;5003673;28;20046;-77
2022/01/19 06:43:20;;;;;;;94.87;39.13;;;4.00;99.90;;;;;;4986750;28;20069;-76
2022/01/19 06:45:46;;;;;;;90.50;36.63;;;4.00;99.90;;;;;;5008549;28;20451;-76
2022/01/19 06:48:12;;;;;;;90.33;39.67;;;3.90;99.90;;;;;;4968632;28;21069;-77
2022/01/19 06:50:38;;;;;;;97.97;38.53;;;3.90;99.90;;;;;;5008146;28;20038;-76
2022/01/19 06:53:06;;;;;;;84.70;36.60;;;3.90;99.90;;;;;;4975695;28;20116;-76
2022/01/19 06:55:34;;;;;;;83.87;36.67;;;3.90;99.90;;;;;;4971064;28;20042;-76
2022/01/19 06:58:02;;;;;;;91.13;36.37;;;3.90;99.90;;;;;;5008254;28;20054;-76
2022/01/19 07:00:43;;;;;;;84.33;37.03;;;3.90;99.90;;;;;;4983866;28;20042;-75
2022/01/19 07:03:15;;;;;;;90.53;35.70;;;3.90;99.90;;;;;;4967756;28;20042;-76
2022/01/19 07:05:49;;;;;;;86.60;36.28;;;3.90;99.90;;;;;;4968270;28;20325;-77
2022/01/19 07:08:33;;;;;;;87.35;36.40;;;3.90;99.90;;;;;;4991257;28;20124;-76
2022/01/19 07:11:00;;;;;;;81.53;34.83;;;3.90;99.90;;;;;;4969305;28;20078;-76
2022/01/19 07:13:26;;;;;;;91.50;37.30;;;3.90;99.90;;;;;;4967142;28;20054;-76
2022/01/19 07:15:51;;;;;;;83.40;35.77;;;3.90;99.90;;;;;;5008085;28;20109;-76
2022/01/19 07:18:17;;;;;;;86.97;34.83;;;3.90;99.90;;;;;;4968774;28;20073;-76
2022/01/19 07:20:43;;;;;;;80.23;35.20;;;3.90;99.90;;;;;;4970112;28;20399;-76
2022/01/19 07:23:09;;;;;;;74.93;34.33;;;3.90;99.90;;;;;;4966722;28;20113;-76
2022/01/19 07:25:35;;;;;;;75.40;32.97;;;3.90;99.90;;;;;;4990942;28;20137;-77
2022/01/19 07:28:05;;;;;;;73.83;33.83;;;3.90;99.90;;;;;;4967841;28;20492;-77
2022/01/19 07:30:32;;;;;;;65.80;32.90;;;3.90;99.90;;;;;;4972802;28;20098;-77
2022/01/19 07:32:58;;;;;;;66.93;31.33;;;3.90;99.90;;;;;;4973593;28;20074;-76
2022/01/19 07:35:23;;;;;;;74.23;32.07;;;3.90;99.90;;;;;;4990016;28;20042;-76
2022/01/19 07:37:52;;;;;;;66.83;32.17;;;3.90;99.90;;;;;;4968870;28;20045;-77
2022/01/19 07:40:18;;;;;;;68.90;31.80;;;3.90;99.90;;;;;;4956820;28;20054;-77
2022/01/19 07:42:45;;;;;;;68.67;33.07;;;3.90;99.90;;;;;;4989649;28;20049;-76
2022/01/19 07:45:15;;;;;;;67.00;32.53;;;3.90;99.90;;;;;;4988571;28;20046;-76
2022/01/19 07:48:04;;;;;;;63.87;30.47;;;3.90;99.90;;;;;;5020354;28;20132;-78
2022/01/19 07:50:46;;;;;;;55.23;30.93;;;3.90;99.90;;;;;;4973458;28;20449;-79
2022/01/19 07:53:34;;;;;;;62.97;31.07;;;3.80;99.90;;;;;;4985685;28;20090;-78
2022/01/19 07:56:19;;;;;;;68.33;31.13;;;3.80;99.90;;;;;;4974782;28;20533;-77
2022/01/19 07:59:03;;;;;;;61.33;31.45;;;3.80;99.90;;;;;;4987348;28;20064;-77
2022/01/19 08:01:47;;;;;;;59.77;30.33;;;3.80;99.90;;;;;;4960750;28;20403;-78
2022/01/19 08:04:35;;;;;;;60.90;31.70;;;3.80;99.90;;;;;;4966601;28;20109;-77
2022/01/19 08:07:01;;;;;;;58.20;30.53;;;3.80;99.90;;;;;;4987840;28;20059;-77
2022/01/19 08:09:27;;;;;;;60.20;30.37;;;3.90;99.90;;;;;;4936325;28;20472;-77
2022/01/19 08:11:53;;;;;;;62.60;32.33;;;3.80;99.90;;;;;;4985450;28;20046;-79
2022/01/19 08:14:25;;;;;;;59.57;31.40;;;3.80;99.90;;;;;;4986533;28;20171;-77
2022/01/19 08:16:53;;;;;;;57.40;30.57;;;3.80;99.90;;;;;;4967658;28;20582;-78
2022/01/19 08:19:19;;;;;;;61.90;31.27;;;3.80;99.90;;;;;;4966670;28;20463;-78
2022/01/19 08:21:46;;;;;;;59.00;30.50;;;3.80;99.90;;;;;;4965749;28;20065;-77
2022/01/19 08:24:11;;;;;;;66.67;32.20;;;3.80;99.90;;;;;;4967752;28;20134;-76
2022/01/19 08:26:38;;;;;;;64.30;31.57;;;3.80;99.90;;;;;;4951041;28;20049;-77
2022/01/19 08:29:09;;;;;;;55.73;31.57;;;3.80;99.90;;;;;;4964994;28;20400;-77
2022/01/19 08:31:35;;;;;;;59.80;33.33;;;3.80;99.90;;;;;;4982889;28;20164;-78
2022/01/19 08:34:11;;;;;;;58.40;31.27;;;3.80;99.90;;;;;;4969663;28;20046;-78
2022/01/19 08:37:10;;;;;;;59.23;31.63;;;3.80;99.90;;;;;;4963897;28;20058;-78
2022/01/19 08:39:41;;;;;;;54.10;30.85;;;3.80;99.90;;;;;;4971621;28;20038;-78
2022/01/19 08:42:07;;;;;;;60.47;32.87;;;3.80;99.90;;;;;;4965863;28;20050;-78
2022/01/19 08:44:34;;;;;;;59.47;32.20;;;3.80;99.90;;;;;;4964901;28;20058;-77
2022/01/19 08:47:13;;;;;;;62.30;32.80;;;3.80;99.90;;;;;;4971592;28;20049;-78
2022/01/19 08:50:00;;;;;;;66.80;33.83;;;3.80;99.90;;;;;;4980433;28;21692;-79
2022/01/19 08:52:58;;;;;;;57.10;32.63;;;3.90;99.90;;;;;;4958251;28;20516;-77
2022/01/19 08:55:30;;;;;;;58.93;32.73;;;3.90;99.90;;;;;;4981008;28;20079;-78
2022/01/19 08:57:55;;;;;;;58.50;32.23;;;3.90;99.90;;;;;;5004138;28;20062;-77
2022/01/19 09:00:22;;;;;;;60.17;32.87;;;4.00;99.90;;;;;;4967808;28;20098;-78
2022/01/19 09:02:48;;;;;;;58.90;32.43;;;4.00;99.90;;;;;;5002428;28;20499;-78
2022/01/19 09:05:16;;;;;;;63.27;32.40;;;4.00;99.90;;;;;;4970850;28;20050;-77
2022/01/19 09:07:42;;;;;;;57.57;31.93;;;4.00;99.90;;;;;;4977460;28;20408;-78
2022/01/19 09:10:09;;;;;;;57.83;32.80;;;4.00;99.90;;;;;;4983857;28;20034;-77
2022/01/19 09:12:38;;;;;;;57.87;32.23;;;4.00;99.90;;;;;;4999265;28;20411;-77
2022/01/19 09:15:05;;;;;;;60.50;34.30;;;4.10;99.90;;;;;;4971402;28;20050;-77
2022/01/19 09:17:31;;;;;;;65.13;35.30;;;4.00;99.90;;;;;;4989771;28;20034;-77
2022/01/19 09:19:57;;;;;;;61.17;34.07;;;4.00;99.90;;;;;;4966339;28;20042;-78
2022/01/19 09:22:24;;;;;;;65.60;35.40;;;4.10;99.90;;;;;;4989277;28;20042;-77
2022/01/19 09:24:50;;;;;;;67.33;37.43;;;4.10;99.90;;;;;;4998670;28;20081;-79
2022/01/19 09:27:18;;;;;;;69.10;36.97;;;4.10;99.90;;;;;;4970009;28;20075;-77
2022/01/19 09:29:45;;;;;;;72.13;38.07;;;4.10;99.90;;;;;;4970479;28;20086;-78
2022/01/19 09:32:11;;;;;;;66.90;38.17;;;4.00;99.90;;;;;;4982825;28;20042;-77
2022/01/19 09:34:40;;;;;;;71.50;39.87;;;4.00;99.90;;;;;;4973647;28;20046;-79
2022/01/19 09:37:05;;;;;;;71.13;39.87;;;4.00;99.90;;;;;;4980531;28;20053;-78
2022/01/19 09:39:32;;;;;;;69.47;40.50;;;4.00;99.90;;;;;;4967533;28;20098;-78
2022/01/19 09:41:58;;;;;;;74.80;41.33;;;4.00;99.90;;;;;;4967101;28;20422;-78
2022/01/19 09:44:26;;;;;;;70.37;40.47;;;4.00;99.90;;;;;;5002306;28;20130;-78
2022/01/19 09:46:52;;;;;;;79.93;41.73;;;4.00;99.90;;;;;;4973295;28;20549;-78
2022/01/19 09:49:19;;;;;;;75.60;40.20;;;4.10;99.90;;;;;;4968216;28;20500;-77
2022/01/19 09:51:47;;;;;;;76.50;41.40;;;4.10;99.90;;;;;;4991976;28;20046;-76
2022/01/19 09:54:13;;;;;;;68.00;40.17;;;4.10;99.90;;;;;;4967264;28;20455;-77
2022/01/19 09:56:40;;;;;;;76.67;41.77;;;4.20;99.90;;;;;;4977324;28;20064;-78
2022/01/19 09:59:07;;;;;;;77.67;41.50;;;4.20;99.90;;;;;;4990048;28;20524;-78
2022/01/19 10:01:33;;;;;;;76.10;42.33;;;4.20;99.90;;;;;;5004202;28;20030;-78
2022/01/19 10:04:16;;;;;;;71.43;40.10;;;4.20;99.90;;;;;;5008906;28;20464;-77
2022/01/19 10:06:42;;;;;;;66.80;39.40;;;4.30;99.90;;;;;;4966806;28;20092;-78
2022/01/19 10:09:07;;;;;;;68.80;38.83;;;4.30;99.90;;;;;;4992638;28;20489;-79
2022/01/19 10:17:01;;;;;;;70.20;39.27;;;4.30;99.90;;;;;;4968699;28;20050;-78
2022/01/19 10:19:29;;;;;;;74.47;40.90;;;4.30;99.90;;;;;;4993282;28;20121;-78
2022/01/19 10:21:57;;;;;;;75.57;41.00;;;4.30;99.90;;;;;;4977984;28;20056;-78
2022/01/19 10:24:33;;;;;;;75.57;39.47;;;4.40;99.90;;;;;;4986020;28;20286;-77
2022/01/19 10:27:18;;;;;;;74.33;40.50;;;4.40;99.90;;;;;;4975270;28;20392;-78
2022/01/19 10:29:46;;;;;;;72.63;38.80;;;4.50;99.90;;;;;;4986503;28;20049;-79
2022/01/19 10:32:12;;;;;;;72.77;40.63;;;4.50;99.90;;;;;;4990575;28;20046;-78
2022/01/19 10:34:38;;;;;;;75.77;40.00;;;4.50;99.90;;;;;;4983881;28;20047;-79
2022/01/19 10:37:05;;;;;;;75.10;41.73;;;4.50;99.90;;;;;;4991167;28;20056;-78
2022/01/19 10:39:40;;;;;;;77.33;43.50;;;4.60;99.90;;;;;;4970841;28;20473;-78
2022/01/19 10:42:08;;;;;;;75.87;41.63;;;4.60;99.90;;;;;;5005179;28;20508;-78
2022/01/19 10:44:35;;;;;;;77.20;42.80;;;4.60;99.90;;;;;;4991612;28;20507;-77
2022/01/19 10:47:03;;;;;;;81.07;42.67;;;4.60;99.90;;;;;;5002484;28;20043;-78
2022/01/19 10:49:46;;;;;;;79.10;42.63;;;4.60;99.90;;;;;;5008302;28;20687;-78
2022/01/19 10:52:25;;;;;;;80.53;43.27;;;4.70;99.90;;;;;;5001162;28;20042;-76
2022/01/19 10:54:50;;;;;;;84.07;44.57;;;4.70;99.90;;;;;;4991049;28;20062;-78
2022/01/19 10:57:16;;;;;;;82.37;44.27;;;4.70;99.90;;;;;;4986942;28;20653;-77
2022/01/19 10:59:42;;;;;;;76.67;42.77;;;4.70;99.90;;;;;;4989569;28;20042;-78
2022/01/19 11:02:12;;;;;;;85.50;45.90;;;4.80;99.90;;;;;;4991103;28;20069;-77
2022/01/19 11:04:39;;;;;;;80.53;44.67;;;4.80;99.90;;;;;;5018797;28;20543;-78
2022/01/19 11:07:06;;;;;;;87.70;45.53;;;4.80;99.90;;;;;;4990346;28;20532;-77
2022/01/19 11:09:42;;;;;;;88.70;46.33;;;4.80;99.90;;;;;;4971515;28;20050;-78
2022/01/19 11:12:13;;;;;;;86.33;45.60;;;4.80;99.90;;;;;;4989877;28;20129;-79
2022/01/19 11:14:40;;;;;;;89.53;47.50;;;4.90;99.90;;;;;;4991853;28;20109;-78
2022/01/19 11:17:07;;;;;;;90.23;46.10;;;4.90;99.90;;;;;;4983365;28;20050;-76
2022/01/19 11:19:37;;;;;;;88.37;47.97;;;4.90;99.90;;;;;;5000691;28;20046;-78
2022/01/19 11:22:15;;;;;;;89.93;46.93;;;4.80;99.90;;;;;;4985995;28;20046;-77
2022/01/19 11:24:50;;;;;;;89.97;49.20;;;4.80;99.90;;;;;;4974766;28;20133;-77
2022/01/19 11:27:17;;;;;;;94.60;48.37;;;4.80;99.90;;;;;;4979755;28;20042;-75
2022/01/19 11:29:42;;;;;;;91.53;48.23;;;4.80;99.90;;;;;;4995254;28;20046;-76
2022/01/19 11:32:15;;;;;;;98.47;50.57;;;4.80;99.90;;;;;;4991363;28;20424;-76
2022/01/19 11:34:46;;;;;;;98.57;49.83;;;4.70;99.90;;;;;;4984323;28;20038;-76
2022/01/19 11:37:13;;;;;;;102.97;51.57;;;4.70;99.90;;;;;;5015334;28;20121;-77
2022/01/19 11:40:04;;;;;;;109.27;52.27;;;4.70;99.90;;;;;;4985739;28;20451;-77
2022/01/19 11:42:29;;;;;;;106.13;51.10;;;4.70;99.90;;;;;;4971920;28;20051;-76
2022/01/19 11:44:55;;;;;;;110.47;53.07;;;4.70;99.90;;;;;;4989958;28;20160;-76
2022/01/19 11:47:23;;;;;;;113.43;54.10;;;4.70;99.90;;;;;;4970079;28;20046;-76
2022/01/19 11:49:53;;;;;;;119.00;55.33;;;4.70;99.90;;;;;;4973909;28;20038;-76
2022/01/19 11:52:24;;;;;;;122.97;53.07;;;4.70;99.90;;;;;;4984484;28;20039;-76
2022/01/19 11:55:07;;;;;;;122.67;55.13;;;4.70;99.90;;;;;;4989770;28;20039;-77
2022/01/19 11:57:33;;;;;;;122.20;55.03;;;4.70;99.90;;;;;;4987019;28;20057;-76
2022/01/19 12:00:15;;;;;;;125.70;58.40;;;4.80;99.90;;;;;;4971447;28;20053;-77
2022/01/19 12:02:52;;;;;;;118.17;56.27;;;4.80;99.90;;;;;;4991134;28;20042;-77
2022/01/19 12:05:26;;;;;;;119.17;55.00;;;4.80;99.90;;;;;;4969214;28;20042;-78
2022/01/19 12:07:55;;;;;;;120.55;56.53;;;4.80;99.90;;;;;;4987789;28;20046;-76
2022/01/19 12:10:42;;;;;;;122.73;55.73;;;4.80;99.90;;;;;;4982241;28;20054;-76
2022/01/19 12:16:12;;;;;;;117.60;53.93;;;4.90;99.90;;;;;;4982340;28;20084;-78
2022/01/19 12:18:48;;;;;;;119.27;55.13;;;4.90;99.90;;;;;;4986778;28;20518;-76
2022/01/19 12:21:36;;;;;;;119.13;55.17;;;4.90;99.90;;;;;;4984307;28;20038;-76
2022/01/19 12:24:29;;;;;;;119.43;55.53;;;4.90;99.90;;;;;;5020858;28;20069;-77
2022/01/19 12:27:05;;;;;;;125.23;55.53;;;4.90;99.90;;;;;;4988446;28;20042;-78
2022/01/19 12:29:44;;;;;;;120.67;56.27;;;4.90;99.90;;;;;;4984773;28;20047;-78
2022/01/19 12:32:33;;;;;;;128.47;56.20;;;5.00;99.90;;;;;;5019185;28;20039;-76
2022/01/19 12:35:10;;;;;;;114.67;55.53;;;4.90;99.90;;;;;;4981291;28;20046;-78
2022/01/19 12:37:40;;;;;;;118.63;55.00;;;5.00;99.90;;;;;;4985305;28;20069;-76
2022/01/19 12:40:25;;;;;;;120.00;56.07;;;5.00;99.90;;;;;;4980951;28;20060;-77
2022/01/19 12:42:54;;;;;;;120.10;55.90;;;5.00;99.90;;;;;;4979295;28;20551;-76
2022/01/19 12:45:25;;;;;;;121.63;54.37;;;4.90;99.90;;;;;;4987447;28;20388;-77
2022/01/19 12:47:53;;;;;;;132.57;57.77;;;4.90;99.90;;;;;;4982230;28;20125;-75
2022/01/19 12:50:49;;;;;;;116.77;55.27;;;5.00;99.90;;;;;;4986086;28;20065;-76
2022/01/19 12:53:23;;;;;;;120.93;56.23;;;4.90;99.90;;;;;;4968153;28;20046;-78
2022/01/19 12:55:53;;;;;;;126.87;57.73;;;4.90;99.90;;;;;;4986432;28;20061;-76
2022/01/19 12:58:30;;;;;;;127.93;57.73;;;4.90;99.90;;;;;;4981241;28;20102;-77
2022/01/19 13:00:58;;;;;;;122.37;57.20;;;4.90;99.90;;;;;;4980693;28;20201;-74
2022/01/19 13:03:27;;;;;;;133.93;57.73;;;4.90;99.90;;;;;;5011144;28;20050;-74
2022/01/19 13:05:58;;;;;;;125.70;56.43;;;5.00;99.90;;;;;;4966038;28;20074;-75
2022/01/19 13:08:35;;;;;;;128.27;59.10;;;5.00;99.90;;;;;;4971705;28;20039;-76
2022/01/19 13:11:09;;;;;;;121.27;54.37;;;5.00;99.90;;;;;;4962254;28;20385;-76
2022/01/19 13:14:03;;;;;;;118.93;56.58;;;5.00;99.90;;;;;;4985261;28;20050;-77
2022/01/19 13:16:35;;;;;;;106.10;53.35;;;5.00;99.90;;;;;;4935693;28;20046;-78
2022/01/19 13:19:04;;;;;;;111.57;54.97;;;5.00;99.90;;;;;;4983225;28;20560;-77
2022/01/19 13:21:30;;;;;;;117.60;54.43;;;5.00;99.90;;;;;;4983042;28;20089;-76
2022/01/19 13:23:59;;;;;;;107.27;53.07;;;5.00;99.90;;;;;;4991653;28;20400;-76
2022/01/19 13:26:39;;;;;;;107.03;52.97;;;5.10;99.90;;;;;;4974853;28;20064;-77
2022/01/19 13:29:16;;;;;;;100.80;50.90;;;5.10;99.90;;;;;;4986999;28;20049;-77
2022/01/19 13:32:03;;;;;;;104.13;50.33;;;5.20;99.90;;;;;;4987619;28;20513;-75
2022/01/19 13:34:31;;;;;;;95.60;50.13;;;5.20;99.90;;;;;;5006026;28;20046;-76
2022/01/19 13:36:59;;;;;;;100.20;50.77;;;5.20;99.90;;;;;;4990812;28;20046;-76
2022/01/19 13:39:28;;;;;;;97.30;47.60;;;5.30;99.90;;;;;;4984722;28;20169;-76
2022/01/19 13:41:57;;;;;;;86.67;46.00;;;5.30;99.90;;;;;;4972499;28;20042;-76
2022/01/19 13:44:30;;;;;;;94.17;46.53;;;5.30;99.90;;;;;;5013491;28;20045;-77
2022/01/19 13:47:10;;;;;;;89.30;45.80;;;5.40;99.90;;;;;;4989005;28;20668;-76
2022/01/19 13:49:37;;;;;;;90.83;45.43;;;5.40;99.90;;;;;;4970906;28;20064;-77
2022/01/19 13:52:04;;;;;;;85.23;44.07;;;5.40;99.90;;;;;;4985017;28;20050;-78
2022/01/19 13:54:35;;;;;;;90.03;43.93;;;5.40;99.90;;;;;;4976205;28;20466;-76
2022/01/19 13:57:01;;;;;;;81.33;42.97;;;5.50;99.90;;;;;;4967675;28;20046;-75
2022/01/19 13:59:27;;;;;;;81.60;43.27;;;5.50;99.90;;;;;;4989165;28;20057;-76
2022/01/19 14:02:01;;;;;;;74.63;40.47;;;5.60;99.90;;;;;;4988684;28;20069;-77
2022/01/19 14:04:28;;;;;;;77.25;39.90;;;5.50;99.90;;;;;;4988696;28;20125;-76
2022/01/19 14:07:03;;;;;;;77.47;39.63;;;5.60;99.90;;;;;;4972336;28;20065;-76
2022/01/19 14:09:34;;;;;;;77.20;41.27;;;5.60;99.90;;;;;;4985594;28;20113;-78
2022/01/19 14:12:06;;;;;;;74.23;38.63;;;5.60;99.90;;;;;;4987922;28;20178;-75
2022/01/19 14:14:35;;;;;;;73.17;38.80;;;5.60;99.90;;;;;;4968891;28;20082;-75